Time;durP1;ratioP1;P1;durP2;ratioP2;P2;SDS_P1;SDS_P2;PMS_P1;PMS_P2;Temp;Humidity;BMP_temperature;BMP_pressure;BME280_temperature;BME280_humidity;BME280_pressure;Samples;Min_cycle;Max_cycle;Signal;HPM_P1;HPM_P2
2022/08/15 00:01:42;;;;;;;1.02;1.02;;;24.40;99.90;;;;;;5083957;28;20250;-60
2022/08/15 00:04:09;;;;;;;1.08;1.08;;;24.50;99.90;;;;;;5075078;28;20206;-61
2022/08/15 00:06:41;;;;;;;1.10;1.00;;;24.50;99.90;;;;;;5083901;28;20290;-60
2022/08/15 00:09:12;;;;;;;1.00;1.00;;;24.60;99.90;;;;;;5081898;28;20209;-60
2022/08/15 00:11:42;;;;;;;0.93;0.93;;;24.60;99.90;;;;;;5085886;28;20218;-61
2022/08/15 00:14:13;;;;;;;0.82;0.82;;;24.60;99.90;;;;;;5080727;28;20238;-59
2022/08/15 00:16:43;;;;;;;1.00;1.00;;;24.60;99.90;;;;;;5077630;28;20206;-59
2022/08/15 00:19:12;;;;;;;0.90;0.90;;;24.60;99.90;;;;;;5086321;28;20286;-60
2022/08/15 00:21:50;;;;;;;0.80;0.80;;;24.70;99.90;;;;;;5077721;28;20709;-60
2022/08/15 00:24:20;;;;;;;1.00;1.00;;;24.60;99.90;;;;;;5067214;28;20303;-61
2022/08/15 00:26:49;;;;;;;1.00;1.00;;;24.60;99.90;;;;;;5078179;28;20227;-59
2022/08/15 00:29:16;;;;;;;0.90;0.90;;;24.60;99.90;;;;;;5083171;28;20207;-59
2022/08/15 00:31:43;;;;;;;1.00;1.00;;;24.50;99.90;;;;;;5084648;28;20245;-60
2022/08/15 00:34:11;;;;;;;1.10;1.00;;;24.40;99.90;;;;;;5082970;28;20200;-59
2022/08/15 00:36:39;;;;;;;1.17;1.15;;;24.40;99.90;;;;;;5090668;28;20575;-60
2022/08/15 00:39:07;;;;;;;1.30;1.20;;;24.20;99.90;;;;;;5084185;28;20295;-61
2022/08/15 00:41:41;;;;;;;0.90;0.90;;;24.00;99.90;;;;;;5083051;28;20225;-60
2022/08/15 00:44:14;;;;;;;0.90;0.90;;;23.80;99.90;;;;;;5075792;28;20298;-61
2022/08/15 00:46:44;;;;;;;1.20;1.13;;;23.70;99.90;;;;;;5082304;28;20214;-61
2022/08/15 00:49:12;;;;;;;0.70;0.70;;;23.60;99.90;;;;;;5077179;28;20697;-60
2022/08/15 00:51:44;;;;;;;0.98;0.98;;;23.50;99.90;;;;;;5075441;28;20235;-60
2022/08/15 00:54:15;;;;;;;0.80;0.80;;;23.50;99.90;;;;;;5085312;28;20286;-60
2022/08/15 00:56:52;;;;;;;0.93;0.90;;;23.50;99.90;;;;;;5076915;28;20573;-61
2022/08/15 00:59:26;;;;;;;0.80;0.80;;;23.50;99.90;;;;;;5085713;28;20252;-61
2022/08/15 01:01:54;;;;;;;0.80;0.80;;;23.50;99.90;;;;;;5083047;28;20226;-60
2022/08/15 01:04:21;;;;;;;0.90;0.90;;;23.40;99.90;;;;;;5079729;28;20206;-61
2022/08/15 01:06:50;;;;;;;0.88;0.88;;;23.40;99.90;;;;;;5084576;28;20200;-60
2022/08/15 01:09:18;;;;;;;0.88;0.88;;;23.30;99.90;;;;;;5079261;28;20310;-60
2022/08/15 01:11:51;;;;;;;0.95;0.95;;;23.10;99.90;;;;;;5085954;28;20218;-60
2022/08/15 01:14:19;;;;;;;1.00;1.00;;;23.00;99.90;;;;;;5084482;28;20282;-59
2022/08/15 01:16:47;;;;;;;1.00;1.00;;;23.00;99.90;;;;;;5083206;28;20290;-59
2022/08/15 01:19:17;;;;;;;0.93;0.93;;;22.90;99.90;;;;;;5080929;28;20305;-62
2022/08/15 01:22:11;;;;;;;1.10;1.10;;;22.80;99.90;;;;;;5083389;28;20222;-59
2022/08/15 01:24:57;;;;;;;0.73;0.73;;;22.80;99.90;;;;;;5087324;28;20202;-59
2022/08/15 01:27:30;;;;;;;0.90;0.90;;;22.70;99.90;;;;;;5073274;28;20203;-59
2022/08/15 01:29:58;;;;;;;0.90;0.90;;;22.60;99.90;;;;;;5092364;28;20198;-59
2022/08/15 01:32:25;;;;;;;0.93;0.93;;;22.50;99.90;;;;;;5087156;28;20229;-58
2022/08/15 01:34:52;;;;;;;0.98;0.98;;;22.50;99.90;;;;;;5083010;28;20669;-59
2022/08/15 01:37:20;;;;;;;0.90;0.90;;;22.50;99.90;;;;;;5087768;28;20285;-59
2022/08/15 01:39:54;;;;;;;0.70;0.70;;;22.40;99.90;;;;;;5076650;28;20594;-59
2022/08/15 01:42:25;;;;;;;1.00;1.00;;;22.40;99.90;;;;;;5076168;28;20231;-59
2022/08/15 01:44:55;;;;;;;1.00;1.00;;;22.50;99.90;;;;;;5074848;28;20293;-59
2022/08/15 01:47:28;;;;;;;1.30;1.20;;;22.40;99.90;;;;;;5081524;28;20307;-59
2022/08/15 01:50:01;;;;;;;0.82;0.82;;;22.30;99.90;;;;;;5088419;28;20290;-60
2022/08/15 01:52:34;;;;;;;0.90;0.90;;;22.30;99.90;;;;;;5069278;28;20242;-60
2022/08/15 01:55:07;;;;;;;0.95;0.95;;;22.20;99.90;;;;;;5068238;28;20205;-60
2022/08/15 01:57:34;;;;;;;1.27;1.10;;;22.20;99.90;;;;;;5078371;28;20195;-60
2022/08/15 02:00:01;;;;;;;0.90;0.90;;;22.10;99.90;;;;;;5072679;28;20290;-60
2022/08/15 02:02:29;;;;;;;0.95;0.95;;;22.10;99.90;;;;;;5080204;28;20223;-60
2022/08/15 02:04:56;;;;;;;1.00;0.90;;;22.10;99.90;;;;;;5081894;28;20656;-60
2022/08/15 02:07:25;;;;;;;1.00;1.00;;;22.10;99.90;;;;;;5084901;28;20319;-60
2022/08/15 02:09:54;;;;;;;1.00;1.00;;;22.10;99.90;;;;;;5075351;28;20208;-60
2022/08/15 02:12:25;;;;;;;1.00;1.00;;;22.10;99.90;;;;;;5078305;28;20478;-60
2022/08/15 02:14:52;;;;;;;0.93;0.93;;;22.10;99.90;;;;;;5082142;28;20301;-60
2022/08/15 02:17:19;;;;;;;0.90;0.90;;;22.10;99.90;;;;;;5077488;28;20204;-60
2022/08/15 02:19:48;;;;;;;1.13;1.10;;;22.00;99.90;;;;;;5087006;28;20297;-60
2022/08/15 02:22:16;;;;;;;0.85;0.85;;;22.00;99.90;;;;;;5077744;28;20665;-60
2022/08/15 02:24:44;;;;;;;1.05;1.00;;;22.00;99.90;;;;;;5076236;28;20203;-60
2022/08/15 02:27:11;;;;;;;1.10;1.00;;;21.90;99.90;;;;;;5075079;28;20205;-60
2022/08/15 02:29:40;;;;;;;0.98;0.98;;;21.90;99.90;;;;;;5071836;28;20219;-60
2022/08/15 02:32:11;;;;;;;1.13;1.13;;;21.80;99.90;;;;;;5083594;28;20218;-60
2022/08/15 02:34:38;;;;;;;1.00;1.00;;;21.70;99.90;;;;;;5080828;28;20623;-60
2022/08/15 02:37:06;;;;;;;1.20;1.10;;;21.70;99.90;;;;;;5083879;28;20199;-60
2022/08/15 02:39:33;;;;;;;1.20;1.20;;;21.70;99.90;;;;;;5086888;28;20202;-60
2022/08/15 02:42:00;;;;;;;1.00;1.00;;;21.60;99.90;;;;;;5082994;28;20228;-60
2022/08/15 02:44:27;;;;;;;1.00;1.00;;;21.40;99.90;;;;;;5076199;28;20211;-60
2022/08/15 02:46:56;;;;;;;0.82;0.82;;;21.60;99.90;;;;;;5074987;28;20207;-60
2022/08/15 02:49:24;;;;;;;1.00;1.00;;;21.70;99.90;;;;;;5083367;28;20339;-60
2022/08/15 02:51:52;;;;;;;1.10;1.10;;;21.50;99.90;;;;;;5082831;28;20664;-60
2022/08/15 02:54:26;;;;;;;0.90;0.90;;;21.50;99.90;;;;;;5076530;28;20717;-60
2022/08/15 02:56:55;;;;;;;1.20;1.20;;;21.40;99.90;;;;;;5075646;28;20206;-60
2022/08/15 02:59:22;;;;;;;1.02;1.02;;;21.30;99.90;;;;;;5078533;28;20198;-60
2022/08/15 03:01:49;;;;;;;1.00;1.00;;;21.20;99.90;;;;;;5081479;28;20253;-60
2022/08/15 03:04:22;;;;;;;1.00;1.00;;;21.10;99.90;;;;;;5071139;28;20199;-60
2022/08/15 03:06:49;;;;;;;1.25;1.25;;;21.00;99.90;;;;;;5079971;28;20277;-60
2022/08/15 03:09:17;;;;;;;1.52;1.17;;;21.00;99.90;;;;;;5080147;28;20313;-60
2022/08/15 03:11:45;;;;;;;1.00;1.00;;;20.90;99.90;;;;;;5076774;28;20861;-61
2022/08/15 03:14:16;;;;;;;0.90;0.90;;;20.80;99.90;;;;;;5077352;28;20286;-61
2022/08/15 03:16:45;;;;;;;0.90;0.90;;;20.80;99.90;;;;;;5072113;28;20202;-60
2022/08/15 03:19:15;;;;;;;1.00;1.00;;;20.90;99.90;;;;;;5083076;28;20230;-61
2022/08/15 03:21:44;;;;;;;1.10;1.10;;;20.90;99.90;;;;;;5079541;28;20732;-60
2022/08/15 03:24:12;;;;;;;0.82;0.82;;;20.90;99.90;;;;;;5079017;28;20667;-60
2022/08/15 03:26:39;;;;;;;0.88;0.82;;;21.00;99.90;;;;;;5087536;28;20209;-60
2022/08/15 03:29:07;;;;;;;0.80;0.80;;;21.10;99.90;;;;;;5074553;28;20584;-61
2022/08/15 03:31:35;;;;;;;0.95;0.95;;;21.10;99.90;;;;;;5071845;28;20234;-60
2022/08/15 03:34:03;;;;;;;0.90;0.90;;;21.20;99.90;;;;;;5085604;28;20206;-60
2022/08/15 03:36:29;;;;;;;1.00;1.00;;;21.20;99.90;;;;;;5076552;28;20195;-61
2022/08/15 03:38:58;;;;;;;0.80;0.80;;;21.20;99.90;;;;;;5083072;28;20199;-60
2022/08/15 03:41:25;;;;;;;0.80;0.80;;;21.20;99.90;;;;;;5075871;28;20219;-60
2022/08/15 03:43:53;;;;;;;0.90;0.90;;;21.20;99.90;;;;;;5078238;28;20261;-60
2022/08/15 03:46:21;;;;;;;0.85;0.85;;;21.30;99.90;;;;;;5077774;28;20241;-61
2022/08/15 03:48:50;;;;;;;0.80;0.80;;;21.30;99.90;;;;;;5082071;28;20223;-60
2022/08/15 03:51:18;;;;;;;0.90;0.90;;;21.30;99.90;;;;;;5076710;28;20260;-60
2022/08/15 03:53:48;;;;;;;0.95;0.95;;;21.20;99.90;;;;;;5078183;28;20250;-60
2022/08/15 03:56:18;;;;;;;0.90;0.90;;;21.20;99.90;;;;;;5082892;28;20194;-60
2022/08/15 03:58:46;;;;;;;0.90;0.90;;;21.20;99.90;;;;;;5081694;28;20191;-60
2022/08/15 04:01:17;;;;;;;0.93;0.93;;;21.20;99.90;;;;;;5074698;28;20209;-60
2022/08/15 04:03:45;;;;;;;0.82;0.82;;;21.20;99.90;;;;;;5074063;28;20199;-61
2022/08/15 04:06:14;;;;;;;1.13;1.13;;;21.20;99.90;;;;;;5071253;28;20282;-61
2022/08/15 04:08:42;;;;;;;1.00;1.00;;;21.20;99.90;;;;;;5071862;28;20219;-60
2022/08/15 04:11:10;;;;;;;1.00;1.00;;;21.10;99.90;;;;;;5082197;28;20657;-61
2022/08/15 04:13:39;;;;;;;0.98;0.98;;;21.10;99.90;;;;;;5081733;28;20206;-61
2022/08/15 04:16:07;;;;;;;1.00;1.00;;;21.00;99.90;;;;;;5069420;28;20203;-61
2022/08/15 04:18:37;;;;;;;1.00;1.00;;;21.10;99.90;;;;;;5083419;28;20194;-59
2022/08/15 04:21:08;;;;;;;1.05;1.05;;;21.00;99.90;;;;;;5080155;28;20294;-61
2022/08/15 04:23:36;;;;;;;0.90;0.90;;;20.90;99.90;;;;;;5085498;28;20199;-61
2022/08/15 04:26:03;;;;;;;0.60;0.60;;;20.90;99.90;;;;;;5083157;28;20237;-61
2022/08/15 04:28:30;;;;;;;0.82;0.82;;;20.80;99.90;;;;;;5087464;28;20309;-60
2022/08/15 04:31:00;;;;;;;0.82;0.82;;;20.90;99.90;;;;;;5082836;28;20199;-61
2022/08/15 04:33:29;;;;;;;0.85;0.85;;;20.80;99.90;;;;;;5080829;28;20246;-61
2022/08/15 04:35:59;;;;;;;0.80;0.80;;;20.80;99.90;;;;;;5085939;28;20196;-60
2022/08/15 04:38:27;;;;;;;0.60;0.60;;;20.70;99.90;;;;;;5084390;28;20195;-61
2022/08/15 04:40:54;;;;;;;0.98;0.90;;;20.70;99.90;;;;;;5085639;28;20205;-61
2022/08/15 04:43:23;;;;;;;0.80;0.80;;;20.80;99.90;;;;;;5081240;28;20690;-61
2022/08/15 04:45:51;;;;;;;0.90;0.90;;;20.80;99.90;;;;;;5084463;28;20238;-61
2022/08/15 04:48:21;;;;;;;0.95;0.80;;;20.80;99.90;;;;;;5083262;28;20403;-60
2022/08/15 04:50:50;;;;;;;0.90;0.90;;;20.80;99.90;;;;;;5076975;28;20729;-59
2022/08/15 04:53:18;;;;;;;0.90;0.90;;;20.80;99.90;;;;;;5079726;28;20320;-61
2022/08/15 04:55:47;;;;;;;0.93;0.93;;;20.70;99.90;;;;;;5084103;28;20207;-61
2022/08/15 04:58:15;;;;;;;0.90;0.90;;;20.70;99.90;;;;;;5086062;28;20281;-60
2022/08/15 05:00:50;;;;;;;0.90;0.90;;;20.70;99.90;;;;;;5082675;28;20609;-61
2022/08/15 05:03:20;;;;;;;0.90;0.90;;;20.60;99.90;;;;;;5076058;28;20225;-60
2022/08/15 05:05:49;;;;;;;0.90;0.90;;;20.60;99.90;;;;;;5081659;28;20214;-61
2022/08/15 05:08:16;;;;;;;0.93;0.93;;;20.60;99.90;;;;;;5080181;28;20685;-61
2022/08/15 05:10:45;;;;;;;0.98;0.98;;;20.60;99.90;;;;;;5082692;28;20634;-61
2022/08/15 05:13:15;;;;;;;0.80;0.80;;;20.70;99.90;;;;;;5076752;28;20226;-60
2022/08/15 05:15:43;;;;;;;0.80;0.80;;;20.70;99.90;;;;;;5081699;28;20294;-60
2022/08/15 05:18:10;;;;;;;0.90;0.90;;;20.70;99.90;;;;;;5083537;28;20199;-61
2022/08/15 05:20:41;;;;;;;0.80;0.80;;;20.70;99.90;;;;;;5084540;28;20285;-60
2022/08/15 05:23:10;;;;;;;0.90;0.90;;;20.70;99.90;;;;;;5084993;28;20225;-60
2022/08/15 05:25:40;;;;;;;0.80;0.80;;;20.70;99.90;;;;;;5085244;28;20564;-60
2022/08/15 05:28:17;;;;;;;0.70;0.70;;;20.70;99.90;;;;;;5096150;22;20255;-67
2022/08/15 05:30:44;;;;;;;0.70;0.70;;;20.60;99.90;;;;;;5055844;28;20211;-67
2022/08/15 05:33:14;;;;;;;0.90;0.90;;;20.60;99.90;;;;;;5055365;28;20696;-67
2022/08/15 05:35:44;;;;;;;0.80;0.80;;;20.70;99.90;;;;;;5063140;28;20227;-67
2022/08/15 05:38:16;;;;;;;0.82;0.82;;;20.70;99.90;;;;;;5056869;28;20571;-67
2022/08/15 05:40:53;;;;;;;0.80;0.80;;;20.70;99.90;;;;;;5059490;28;20230;-67
2022/08/15 05:43:32;;;;;;;0.90;0.90;;;20.80;99.90;;;;;;5067617;28;20199;-67
2022/08/15 05:46:10;;;;;;;0.80;0.80;;;20.80;99.90;;;;;;5053111;28;20208;-67
2022/08/15 05:48:38;;;;;;;0.57;0.57;;;20.90;99.90;;;;;;5057800;28;20534;-66
2022/08/15 05:51:29;;;;;;;0.90;0.90;;;20.80;99.90;;;;;;5059053;28;20203;-68
2022/08/15 05:54:08;;;;;;;0.60;0.60;;;20.90;99.90;;;;;;5053604;28;20291;-67
2022/08/15 05:56:46;;;;;;;0.70;0.70;;;20.80;99.90;;;;;;5067411;28;20234;-67
2022/08/15 05:59:16;;;;;;;0.80;0.80;;;20.90;99.90;;;;;;5060942;28;20303;-67
2022/08/15 06:01:47;;;;;;;0.80;0.80;;;21.00;99.90;;;;;;5070075;28;20234;-67
2022/08/15 06:04:22;;;;;;;0.90;0.90;;;21.00;99.90;;;;;;5061382;28;20225;-66
2022/08/15 06:06:51;;;;;;;0.60;0.60;;;21.00;99.90;;;;;;5069705;28;20202;-66
2022/08/15 06:09:32;;;;;;;0.80;0.80;;;21.00;99.90;;;;;;5060831;28;20664;-67
2022/08/15 06:12:03;;;;;;;0.55;0.55;;;21.00;99.90;;;;;;5048820;28;20237;-68
2022/08/15 06:14:34;;;;;;;0.70;0.70;;;21.10;99.90;;;;;;5063098;28;20268;-67
2022/08/15 06:17:04;;;;;;;0.68;0.68;;;21.10;99.90;;;;;;5047257;28;20290;-66
2022/08/15 06:19:34;;;;;;;0.70;0.70;;;21.10;99.90;;;;;;5057408;28;20216;-67
2022/08/15 06:22:21;;;;;;;0.70;0.70;;;21.20;99.90;;;;;;5051005;28;20290;-67
2022/08/15 06:24:58;;;;;;;0.70;0.70;;;21.20;99.90;;;;;;5061229;28;20202;-67
2022/08/15 06:27:37;;;;;;;0.90;0.90;;;21.30;99.90;;;;;;5056716;28;20690;-67
2022/08/15 06:30:08;;;;;;;0.70;0.70;;;21.40;99.90;;;;;;5055210;28;20609;-67
2022/08/15 06:32:47;;;;;;;0.95;0.93;;;21.50;99.90;;;;;;5063637;28;20207;-66
2022/08/15 06:35:25;;;;;;;0.60;0.60;;;21.60;99.90;;;;;;5053751;28;20203;-66
2022/08/15 06:38:03;;;;;;;0.80;0.80;;;21.60;99.90;;;;;;5065209;28;20590;-67
2022/08/15 06:40:40;;;;;;;0.82;0.80;;;21.70;99.90;;;;;;5041161;28;20200;-67
2022/08/15 06:43:09;;;;;;;0.80;0.80;;;21.70;99.90;;;;;;5050931;28;20294;-66
2022/08/15 06:45:40;;;;;;;0.90;0.90;;;21.80;99.90;;;;;;5055398;28;20208;-66
2022/08/15 06:48:11;;;;;;;0.73;0.73;;;21.80;99.90;;;;;;5056385;28;20242;-66
2022/08/15 06:50:41;;;;;;;0.70;0.70;;;21.80;99.90;;;;;;5043417;28;20227;-67
2022/08/15 06:53:16;;;;;;;0.80;0.80;;;21.90;99.90;;;;;;5067116;28;20210;-66
2022/08/15 06:55:53;;;;;;;0.68;0.68;;;22.00;99.90;;;;;;5057952;28;20561;-66
2022/08/15 06:58:35;;;;;;;0.88;0.88;;;22.10;99.90;;;;;;5060285;28;20223;-68
2022/08/15 07:01:10;;;;;;;0.75;0.75;;;22.10;99.90;;;;;;5052543;28;20199;-66
2022/08/15 07:03:48;;;;;;;0.70;0.70;;;22.10;99.90;;;;;;5062737;28;20225;-67
2022/08/15 07:06:19;;;;;;;0.75;0.75;;;22.00;99.90;;;;;;5063802;28;20582;-67
2022/08/15 07:08:55;;;;;;;0.65;0.65;;;22.00;99.90;;;;;;5063567;28;20372;-66
2022/08/15 07:11:30;;;;;;;0.80;0.80;;;22.10;99.90;;;;;;5065002;28;20199;-68
2022/08/15 07:14:12;;;;;;;0.68;0.68;;;22.10;99.90;;;;;;5065641;28;20291;-67
2022/08/15 07:16:46;;;;;;;0.90;0.90;;;22.10;99.90;;;;;;5068602;28;20191;-68
2022/08/15 07:19:14;;;;;;;0.70;0.70;;;22.20;99.90;;;;;;5061221;28;20562;-66
2022/08/15 07:21:42;;;;;;;1.00;1.00;;;22.20;99.90;;;;;;5060218;28;20303;-66
2022/08/15 07:24:12;;;;;;;0.80;0.80;;;22.40;99.90;;;;;;5059437;28;20195;-66
2022/08/15 07:26:46;;;;;;;0.88;0.88;;;22.70;99.90;;;;;;5061609;28;20597;-67
2022/08/15 07:29:22;;;;;;;0.80;0.80;;;23.00;99.90;;;;;;5055269;28;20228;-67
2022/08/15 07:31:51;;;;;;;0.70;0.70;;;23.20;99.90;;;;;;5055175;28;20200;-66
2022/08/15 07:34:22;;;;;;;0.70;0.70;;;23.40;99.90;;;;;;5060403;28;20561;-67
2022/08/15 07:36:57;;;;;;;0.70;0.70;;;23.50;99.90;;;;;;5062687;28;20210;-67
2022/08/15 07:39:31;;;;;;;0.80;0.80;;;23.60;99.90;;;;;;5063648;28;20222;-67
2022/08/15 07:42:00;;;;;;;0.98;0.98;;;23.70;99.90;;;;;;5062052;28;20207;-67
2022/08/15 07:44:30;;;;;;;0.80;0.80;;;23.90;99.90;;;;;;5063722;28;20208;-68
2022/08/15 07:47:00;;;;;;;0.70;0.70;;;24.00;99.90;;;;;;5064126;28;20208;-66
2022/08/15 07:49:30;;;;;;;0.80;0.80;;;24.10;99.90;;;;;;5057766;28;20230;-67
2022/08/15 07:52:03;;;;;;;0.73;0.73;;;24.20;99.90;;;;;;5062994;28;20257;-67
2022/08/15 07:54:43;;;;;;;0.70;0.70;;;24.30;99.90;;;;;;5064622;28;20594;-69
2022/08/15 07:57:23;;;;;;;0.60;0.60;;;24.50;99.90;;;;;;5050810;28;20294;-67
2022/08/15 08:00:09;;;;;;;0.60;0.60;;;24.50;99.90;;;;;;5066532;28;20262;-68
2022/08/15 08:02:42;;;;;;;0.70;0.70;;;24.60;99.90;;;;;;5057357;28;20374;-67
2022/08/15 08:05:10;;;;;;;0.60;0.60;;;24.80;99.90;;;;;;5063598;28;20207;-69
2022/08/15 08:07:42;;;;;;;0.60;0.60;;;25.00;99.90;;;;;;5063422;28;20596;-67
2022/08/15 08:10:18;;;;;;;0.50;0.50;;;25.00;99.90;;;;;;5072955;28;20284;-68
2022/08/15 08:12:58;;;;;;;1.20;0.70;;;25.20;99.90;;;;;;5061338;28;20294;-67
2022/08/15 08:15:30;;;;;;;0.70;0.70;;;25.00;99.90;;;;;;5066081;28;20241;-67
2022/08/15 08:18:04;;;;;;;0.60;0.60;;;25.10;99.90;;;;;;5066650;28;20227;-67
2022/08/15 08:20:37;;;;;;;0.65;0.65;;;25.20;99.90;;;;;;5066280;28;20282;-66
2022/08/15 08:23:13;;;;;;;0.77;0.77;;;25.30;99.90;;;;;;5056978;28;20200;-67
2022/08/15 08:25:52;;;;;;;0.60;0.60;;;25.50;99.90;;;;;;5057287;28;20664;-67
2022/08/15 08:28:29;;;;;;;0.80;0.80;;;25.50;99.90;;;;;;5067159;28;20240;-67
2022/08/15 08:31:03;;;;;;;0.80;0.80;;;25.40;99.90;;;;;;5055883;28;20227;-67
2022/08/15 08:33:43;;;;;;;0.70;0.70;;;25.60;99.90;;;;;;5069101;28;20225;-67
2022/08/15 08:36:21;;;;;;;0.70;0.70;;;25.80;99.90;;;;;;5053896;28;20261;-66
2022/08/15 08:38:56;;;;;;;0.50;0.50;;;25.90;99.90;;;;;;5063091;28;20223;-67
2022/08/15 08:41:36;;;;;;;0.90;0.90;;;25.90;99.90;;;;;;5062035;28;20235;-68
2022/08/15 08:44:14;;;;;;;0.80;0.80;;;26.10;99.90;;;;;;5050431;28;20210;-67
2022/08/15 08:47:10;;;;;;;0.60;0.60;;;26.20;99.90;;;;;;5055886;28;20196;-68
2022/08/15 08:49:47;;;;;;;0.60;0.60;;;26.10;99.90;;;;;;5067305;28;20231;-68
2022/08/15 08:52:22;;;;;;;0.80;0.80;;;26.30;99.90;;;;;;5067913;28;20205;-68
2022/08/15 08:54:58;;;;;;;0.57;0.57;;;26.40;99.90;;;;;;5063755;28;20199;-69
2022/08/15 08:57:32;;;;;;;0.60;0.60;;;26.40;99.90;;;;;;5056717;28;20235;-68
2022/08/15 09:00:05;;;;;;;0.60;0.60;;;26.40;99.90;;;;;;5056358;28;20236;-67
2022/08/15 09:02:37;;;;;;;0.52;0.52;;;26.40;99.90;;;;;;5047782;28;20231;-67
2022/08/15 09:05:10;;;;;;;0.60;0.60;;;26.40;99.90;;;;;;5053160;28;20283;-66
2022/08/15 09:07:44;;;;;;;0.60;0.60;;;26.70;99.90;;;;;;5052908;28;20223;-67
2022/08/15 09:10:19;;;;;;;0.80;0.80;;;26.80;99.90;;;;;;5063472;28;20308;-67
2022/08/15 09:15:39;;;;;;;0.60;0.60;;;27.10;99.90;;;;;;5056335;28;20258;-67
2022/08/15 09:18:10;;;;;;;0.65;0.65;;;27.40;99.90;;;;;;5052749;28;20220;-67
2022/08/15 09:20:40;;;;;;;0.88;0.88;;;27.50;99.90;;;;;;5056176;28;20204;-67
2022/08/15 09:23:09;;;;;;;0.60;0.60;;;27.70;99.90;;;;;;5052508;28;20208;-68
2022/08/15 09:25:41;;;;;;;0.70;0.70;;;27.70;99.90;;;;;;5054300;28;20292;-67
2022/08/15 09:28:15;;;;;;;0.70;0.70;;;27.80;99.90;;;;;;5052357;28;20331;-68
2022/08/15 09:30:44;;;;;;;0.68;0.68;;;27.90;99.90;;;;;;5054447;28;20225;-67
2022/08/15 09:33:32;;;;;;;0.73;0.73;;;28.00;99.90;;;;;;5055329;28;20196;-67
2022/08/15 09:36:31;;;;;;;0.70;0.70;;;28.20;99.90;;;;;;5055128;28;20199;-67
2022/08/15 09:39:12;;;;;;;0.80;0.80;;;28.10;99.90;;;;;;5056051;28;20295;-68
2022/08/15 09:42:04;;;;;;;0.88;0.88;;;28.00;99.90;;;;;;5052908;28;20214;-67
2022/08/15 09:44:59;;;;;;;0.80;0.80;;;28.10;99.90;;;;;;5054230;28;20196;-66
2022/08/15 09:47:45;;;;;;;0.75;0.75;;;28.30;99.90;;;;;;5051789;28;20799;-68
2022/08/15 09:50:38;;;;;;;0.70;0.70;;;28.50;99.90;;;;;;5053064;28;20289;-66
2022/08/15 09:53:21;;;;;;;0.90;0.90;;;28.60;99.90;;;;;;5051025;28;20200;-68
2022/08/15 09:55:51;;;;;;;0.80;0.80;;;28.70;99.90;;;;;;5054859;28;20215;-67
2022/08/15 09:58:21;;;;;;;0.70;0.70;;;28.70;99.90;;;;;;5053967;28;20247;-66
2022/08/15 10:01:07;;;;;;;1.05;1.05;;;28.70;99.90;;;;;;5052594;28;20204;-67
2022/08/15 10:03:59;;;;;;;0.80;0.80;;;28.90;99.90;;;;;;5052876;28;20657;-67
2022/08/15 10:06:29;;;;;;;0.90;0.90;;;29.10;99.90;;;;;;5051891;28;20196;-67
2022/08/15 10:09:11;;;;;;;1.08;0.80;;;29.00;99.90;;;;;;5053597;28;20632;-66
2022/08/15 10:11:58;;;;;;;0.75;0.75;;;28.80;99.90;;;;;;5054700;28;20220;-68
2022/08/15 10:14:27;;;;;;;0.60;0.60;;;28.70;99.90;;;;;;5054101;28;20208;-67
2022/08/15 10:16:59;;;;;;;0.77;0.75;;;28.80;99.90;;;;;;5057945;28;20291;-67
2022/08/15 10:19:30;;;;;;;0.63;0.63;;;28.80;99.90;;;;;;5060252;28;20298;-67
2022/08/15 10:22:00;;;;;;;0.90;0.90;;;29.10;99.90;;;;;;5074673;28;20278;-68
2022/08/15 10:24:32;;;;;;;0.80;0.80;;;29.20;99.90;;;;;;5071563;28;20277;-67
2022/08/15 10:27:17;;;;;;;0.75;0.75;;;29.30;99.90;;;;;;5074724;28;20629;-66
2022/08/15 10:29:48;;;;;;;0.90;0.90;;;29.50;99.90;;;;;;5064136;28;20196;-67
2022/08/15 10:32:40;;;;;;;0.82;0.82;;;29.50;99.90;;;;;;5058443;28;20729;-66
2022/08/15 10:35:16;;;;;;;0.90;0.90;;;29.20;99.90;;;;;;5046163;28;20283;-68
2022/08/15 10:37:51;;;;;;;0.85;0.85;;;29.30;99.90;;;;;;5063760;28;20219;-67
2022/08/15 10:40:39;;;;;;;0.93;0.93;;;29.40;99.90;;;;;;5050056;28;20710;-68
2022/08/15 10:43:23;;;;;;;1.10;1.00;;;29.40;99.90;;;;;;5061314;28;20206;-68
2022/08/15 10:45:59;;;;;;;0.80;0.80;;;29.50;99.90;;;;;;5055419;28;20210;-67
2022/08/15 10:48:49;;;;;;;0.90;0.90;;;29.60;99.90;;;;;;5055704;28;20251;-67
2022/08/15 10:51:25;;;;;;;1.00;1.00;;;29.50;99.90;;;;;;5052432;28;20253;-67
2022/08/15 10:54:03;;;;;;;0.80;0.80;;;29.80;99.90;;;;;;5052474;28;20199;-66
2022/08/15 10:56:42;;;;;;;0.98;0.98;;;29.90;99.90;;;;;;5050082;28;20227;-68
2022/08/15 10:59:13;;;;;;;0.93;0.93;;;30.10;99.90;;;;;;5061157;28;20314;-67
2022/08/15 11:01:43;;;;;;;1.25;1.25;;;29.80;99.90;;;;;;5055211;28;20203;-66
2022/08/15 11:04:23;;;;;;;1.00;1.00;;;29.60;99.90;;;;;;5066247;28;20694;-65
2022/08/15 11:06:50;;;;;;;0.90;0.90;;;29.50;99.90;;;;;;5068544;28;20299;-64
2022/08/15 11:09:20;;;;;;;1.10;1.10;;;29.60;99.90;;;;;;5061800;28;20223;-65
2022/08/15 11:11:52;;;;;;;1.00;1.00;;;29.60;99.90;;;;;;5053246;28;20215;-66
2022/08/15 11:14:21;;;;;;;1.00;1.00;;;29.60;99.90;;;;;;5057956;28;20230;-66
2022/08/15 11:16:51;;;;;;;1.20;1.10;;;29.60;99.90;;;;;;5064190;28;20646;-65
2022/08/15 11:19:23;;;;;;;0.90;0.90;;;29.50;99.90;;;;;;5053205;28;20234;-65
2022/08/15 11:21:54;;;;;;;0.90;0.90;;;29.50;99.90;;;;;;5055811;28;20200;-65
2022/08/15 11:24:30;;;;;;;0.93;0.93;;;29.50;99.90;;;;;;5061528;28;20258;-67
2022/08/15 11:27:11;;;;;;;1.42;1.13;;;29.80;99.90;;;;;;5046679;28;20247;-65
2022/08/15 11:29:39;;;;;;;1.65;1.20;;;30.20;99.90;;;;;;5050314;28;20227;-69
2022/08/15 11:32:07;;;;;;;1.00;1.00;;;30.40;99.90;;;;;;5051508;28;20216;-69
2022/08/15 11:34:38;;;;;;;0.85;0.85;;;30.50;99.90;;;;;;5052385;28;20206;-67
2022/08/15 11:37:11;;;;;;;1.20;1.02;;;30.70;99.90;;;;;;5054225;28;20306;-67
2022/08/15 11:39:42;;;;;;;0.90;0.90;;;30.90;99.90;;;;;;5056271;28;20226;-67
2022/08/15 11:42:15;;;;;;;0.95;0.95;;;31.00;99.90;;;;;;5051282;28;20588;-69
2022/08/15 11:44:46;;;;;;;0.93;0.93;;;31.00;99.90;;;;;;5057446;28;20200;-67
2022/08/15 11:47:16;;;;;;;1.00;1.00;;;31.00;99.90;;;;;;5055617;28;20286;-69
2022/08/15 11:49:48;;;;;;;1.00;1.00;;;31.10;99.90;;;;;;5057653;28;20310;-67
2022/08/15 11:52:23;;;;;;;1.00;1.00;;;31.20;99.90;;;;;;5056620;28;20342;-69
2022/08/15 11:55:14;;;;;;;1.05;1.00;;;31.10;99.90;;;;;;5055022;28;20589;-66
2022/08/15 11:57:43;;;;;;;1.10;1.10;;;31.10;99.90;;;;;;5053923;28;20713;-67
2022/08/15 12:00:21;;;;;;;1.10;1.10;;;31.20;99.90;;;;;;5057417;28;20200;-67
2022/08/15 12:02:48;;;;;;;1.00;1.00;;;31.00;99.90;;;;;;5055476;28;20290;-66
2022/08/15 12:05:26;;;;;;;1.00;1.00;;;30.30;99.90;;;;;;5056279;28;20223;-67
2022/08/15 12:07:58;;;;;;;1.00;1.00;;;30.20;99.90;;;;;;5056940;28;20224;-66
2022/08/15 12:10:31;;;;;;;1.00;1.00;;;30.50;99.90;;;;;;5057400;28;20224;-66
2022/08/15 12:12:59;;;;;;;0.95;0.95;;;30.90;99.90;;;;;;5056906;28;20738;-66
2022/08/15 12:15:40;;;;;;;0.93;0.93;;;31.40;99.90;;;;;;5057733;28;20232;-65
2022/08/15 12:18:15;;;;;;;0.93;0.93;;;31.60;99.90;;;;;;5052750;28;20220;-65
2022/08/15 12:20:47;;;;;;;0.93;0.93;;;31.70;99.90;;;;;;5055008;28;20586;-66
2022/08/15 12:23:35;;;;;;;1.00;1.00;;;31.50;99.90;;;;;;5058104;28;20241;-67
2022/08/15 12:26:05;;;;;;;0.98;0.98;;;31.40;99.90;;;;;;5060313;28;20207;-66
2022/08/15 12:28:34;;;;;;;1.05;1.05;;;31.40;99.90;;;;;;5066224;28;20223;-68
2022/08/15 12:31:10;;;;;;;1.10;1.10;;;31.00;99.90;;;;;;5057935;28;20226;-65
2022/08/15 12:33:37;;;;;;;1.00;1.00;;;30.50;99.90;;;;;;5060108;28;20227;-65
2022/08/15 12:36:06;;;;;;;2.92;1.75;;;30.00;99.90;;;;;;5064830;28;20236;-65
2022/08/15 12:38:35;;;;;;;1.98;1.40;;;29.60;99.90;;;;;;5062996;28;20724;-66
2022/08/15 12:41:03;;;;;;;2.58;1.25;;;28.60;99.90;;;;;;5050483;28;20206;-66
2022/08/15 12:43:30;;;;;;;0.88;0.85;;;27.90;99.90;;;;;;5063742;28;20303;-67
2022/08/15 12:45:57;;;;;;;2.15;1.10;;;27.40;99.90;;;;;;5065419;28;20227;-67
2022/08/15 12:48:27;;;;;;;0.70;0.70;;;27.10;99.90;;;;;;5065757;28;20263;-66
2022/08/15 12:50:55;;;;;;;1.30;1.00;;;26.80;99.90;;;;;;5062541;28;20542;-66
2022/08/15 12:53:23;;;;;;;2.25;0.93;;;26.70;99.90;;;;;;5051460;28;20586;-66
2022/08/15 12:55:51;;;;;;;0.65;0.65;;;26.60;99.90;;;;;;5056060;28;20528;-66
2022/08/15 12:58:20;;;;;;;0.70;0.70;;;26.50;99.90;;;;;;5051101;28;20325;-65
2022/08/15 13:00:49;;;;;;;0.70;0.70;;;26.60;99.90;;;;;;5061152;28;20662;-66
2022/08/15 13:03:19;;;;;;;1.48;0.90;;;26.30;99.90;;;;;;5057503;28;20232;-65
2022/08/15 13:05:48;;;;;;;0.70;0.70;;;26.50;99.90;;;;;;5057450;28;20197;-66
2022/08/15 13:08:15;;;;;;;0.50;0.50;;;26.10;99.90;;;;;;5060326;28;20221;-65
2022/08/15 13:10:43;;;;;;;0.70;0.70;;;25.90;99.90;;;;;;5055024;28;20235;-67
2022/08/15 13:13:11;;;;;;;0.70;0.70;;;25.60;99.90;;;;;;5054290;28;20651;-67
2022/08/15 13:15:40;;;;;;;0.70;0.70;;;25.40;99.90;;;;;;5055471;28;20254;-67
2022/08/15 13:18:07;;;;;;;0.60;0.60;;;25.30;99.90;;;;;;5053175;28;20586;-67